sensor_id;sensor_type;location;lat;lon;timestamp;temperature;humidity
19224;DHT22;9746;47.180;9.776;2022-07-29T11:18:20;32.50;99.90
19224;DHT22;9746;47.180;9.776;2022-07-29T11:20:49;32.80;99.90
19224;DHT22;9746;47.180;9.776;2022-07-29T11:23:25;32.50;99.90
19224;DHT22;9746;47.180;9.776;2022-07-29T11:26:16;32.50;99.90
19224;DHT22;9746;47.180;9.776;2022-07-29T11:28:54;32.60;99.90
19224;DHT22;9746;47.180;9.776;2022-07-29T11:31:36;32.60;99.90
19224;DHT22;9746;47.180;9.776;2022-07-29T11:34:19;33.00;99.90
19224;DHT22;9746;47.180;9.776;2022-07-29T11:37:22;33.70;99.90
19224;DHT22;9746;47.180;9.776;2022-07-29T11:40:15;34.10;99.90
19224;DHT22;9746;47.180;9.776;2022-07-29T11:42:46;34.40;99.90
19224;DHT22;9746;47.180;9.776;2022-07-29T11:45:16;34.70;99.90
19224;DHT22;9746;47.180;9.776;2022-07-29T11:47:50;35.10;99.90
19224;DHT22;9746;47.180;9.776;2022-07-29T11:50:31;35.50;99.90
19224;DHT22;9746;47.180;9.776;2022-07-29T11:53:01;35.90;99.90
19224;DHT22;9746;47.180;9.776;2022-07-29T11:55:29;36.30;99.90
19224;DHT22;9746;47.180;9.776;2022-07-29T11:57:58;36.50;99.90
19224;DHT22;9746;47.180;9.776;2022-07-29T12:00:29;36.70;99.90
19224;DHT22;9746;47.180;9.776;2022-07-29T12:02:58;36.70;99.90
19224;DHT22;9746;47.180;9.776;2022-07-29T12:05:36;36.50;99.90
19224;DHT22;9746;47.180;9.776;2022-07-29T12:08:09;35.70;99.90
19224;DHT22;9746;47.180;9.776;2022-07-29T12:10:39;35.50;99.90
19224;DHT22;9746;47.180;9.776;2022-07-29T12:13:07;35.40;99.90
19224;DHT22;9746;47.180;9.776;2022-07-29T12:15:35;35.20;99.90
19224;DHT22;9746;47.180;9.776;2022-07-29T12:18:16;35.10;99.90
19224;DHT22;9746;47.180;9.776;2022-07-29T12:20:46;34.90;99.90
19224;DHT22;9746;47.180;9.776;2022-07-29T12:23:14;34.60;99.90
19224;DHT22;9746;47.180;9.776;2022-07-29T12:25:43;34.30;99.90
19224;DHT22;9746;47.180;9.776;2022-07-29T12:28:12;33.60;99.50
19224;DHT22;9746;47.180;9.776;2022-07-29T12:30:44;32.80;99.90
19224;DHT22;9746;47.180;9.776;2022-07-29T12:33:16;31.90;99.70
19224;DHT22;9746;47.180;9.776;2022-07-29T12:35:49;31.50;99.90
19224;DHT22;9746;47.180;9.776;2022-07-29T12:38:17;31.20;99.90
19224;DHT22;9746;47.180;9.776;2022-07-29T12:40:46;31.10;99.90
19224;DHT22;9746;47.180;9.776;2022-07-29T12:43:16;30.70;99.90
19224;DHT22;9746;47.180;9.776;2022-07-29T12:45:46;30.30;99.90
19224;DHT22;9746;47.180;9.776;2022-07-29T12:48:15;29.80;99.90
19224;DHT22;9746;47.180;9.776;2022-07-29T12:50:55;29.50;99.90
19224;DHT22;9746;47.180;9.776;2022-07-29T12:53:23;29.00;99.90
19224;DHT22;9746;47.180;9.776;2022-07-29T12:55:52;29.00;99.90
19224;DHT22;9746;47.180;9.776;2022-07-29T12:58:31;28.60;99.90
19224;DHT22;9746;47.180;9.776;2022-07-29T13:01:04;28.40;99.90
19224;DHT22;9746;47.180;9.776;2022-07-29T13:03:50;28.20;99.90
19224;DHT22;9746;47.180;9.776;2022-07-29T13:06:31;28.10;99.90
19224;DHT22;9746;47.180;9.776;2022-07-29T13:09:00;27.90;99.90
19224;DHT22;9746;47.180;9.776;2022-07-29T13:11:29;27.90;99.90
19224;DHT22;9746;47.180;9.776;2022-07-29T13:13:57;27.90;99.90
19224;DHT22;9746;47.180;9.776;2022-07-29T13:16:24;27.70;99.90
19224;DHT22;9746;47.180;9.776;2022-07-29T13:19:10;27.30;99.90
19224;DHT22;9746;47.180;9.776;2022-07-29T13:21:40;26.80;99.90
19224;DHT22;9746;47.180;9.776;2022-07-29T13:24:07;26.40;99.90
19224;DHT22;9746;47.180;9.776;2022-07-29T13:26:36;26.10;99.90
19224;DHT22;9746;47.180;9.776;2022-07-29T13:29:06;25.90;99.90
19224;DHT22;9746;47.180;9.776;2022-07-29T13:31:34;25.50;99.90
19224;DHT22;9746;47.180;9.776;2022-07-29T13:34:02;25.30;99.90
19224;DHT22;9746;47.180;9.776;2022-07-29T13:36:30;25.00;99.90
19224;DHT22;9746;47.180;9.776;2022-07-29T13:38:59;24.90;99.90
19224;DHT22;9746;47.180;9.776;2022-07-29T13:41:28;24.80;99.90
19224;DHT22;9746;47.180;9.776;2022-07-29T13:43:56;24.70;99.90
19224;DHT22;9746;47.180;9.776;2022-07-29T13:46:23;24.70;99.90
19224;DHT22;9746;47.180;9.776;2022-07-29T13:48:51;24.70;99.90
19224;DHT22;9746;47.180;9.776;2022-07-29T13:51:18;24.60;99.90
19224;DHT22;9746;47.180;9.776;2022-07-29T13:53:46;24.40;99.90
19224;DHT22;9746;47.180;9.776;2022-07-29T13:56:15;24.20;99.90
19224;DHT22;9746;47.180;9.776;2022-07-29T13:58:42;24.00;99.90
19224;DHT22;9746;47.180;9.776;2022-07-29T14:01:10;23.60;99.90
19224;DHT22;9746;47.180;9.776;2022-07-29T14:03:38;23.30;99.90
19224;DHT22;9746;47.180;9.776;2022-07-29T14:06:09;23.10;99.90
19224;DHT22;9746;47.180;9.776;2022-07-29T14:08:36;22.90;99.90
19224;DHT22;9746;47.180;9.776;2022-07-29T14:11:04;22.80;99.90
19224;DHT22;9746;47.180;9.776;2022-07-29T14:13:32;22.70;99.90
19224;DHT22;9746;47.180;9.776;2022-07-29T14:16:00;22.80;99.90
19224;DHT22;9746;47.180;9.776;2022-07-29T14:18:27;22.70;99.90
19224;DHT22;9746;47.180;9.776;2022-07-29T14:20:55;22.70;99.90
19224;DHT22;9746;47.180;9.776;2022-07-29T14:23:23;22.60;99.90
19224;DHT22;9746;47.180;9.776;2022-07-29T14:25:51;22.60;99.90
19224;DHT22;9746;47.180;9.776;2022-07-29T14:28:18;22.60;99.90
19224;DHT22;9746;47.180;9.776;2022-07-29T14:30:47;22.60;99.90
19224;DHT22;9746;47.180;9.776;2022-07-29T14:33:15;22.50;99.90
19224;DHT22;9746;47.180;9.776;2022-07-29T14:35:42;22.30;99.90
19224;DHT22;9746;47.180;9.776;2022-07-29T14:38:10;22.30;99.90
19224;DHT22;9746;47.180;9.776;2022-07-29T14:40:37;22.40;99.90
19224;DHT22;9746;47.180;9.776;2022-07-29T14:43:05;22.40;99.90
19224;DHT22;9746;47.180;9.776;2022-07-29T14:45:38;22.40;99.90
19224;DHT22;9746;47.180;9.776;2022-07-29T14:48:11;22.40;99.90
19224;DHT22;9746;47.180;9.776;2022-07-29T14:50:39;22.50;99.90
19224;DHT22;9746;47.180;9.776;2022-07-29T14:53:06;22.50;99.90
19224;DHT22;9746;47.180;9.776;2022-07-29T14:55:34;22.60;99.90
19224;DHT22;9746;47.180;9.776;2022-07-29T14:58:02;22.60;99.90
19224;DHT22;9746;47.180;9.776;2022-07-29T15:00:31;22.40;99.90
19224;DHT22;9746;47.180;9.776;2022-07-29T15:02:59;22.20;99.90
19224;DHT22;9746;47.180;9.776;2022-07-29T15:05:34;22.20;99.90
19224;DHT22;9746;47.180;9.776;2022-07-29T15:08:03;22.30;99.90
19224;DHT22;9746;47.180;9.776;2022-07-29T15:10:31;22.30;99.90
19224;DHT22;9746;47.180;9.776;2022-07-29T15:12:58;22.40;99.90
19224;DHT22;9746;47.180;9.776;2022-07-29T15:15:26;22.40;99.90
19224;DHT22;9746;47.180;9.776;2022-07-29T15:17:53;22.40;99.90
19224;DHT22;9746;47.180;9.776;2022-07-29T15:20:21;22.40;99.90
19224;DHT22;9746;47.180;9.776;2022-07-29T15:22:52;22.40;99.90
19224;DHT22;9746;47.180;9.776;2022-07-29T15:25:21;22.30;99.90
19224;DHT22;9746;47.180;9.776;2022-07-29T15:27:48;22.30;99.90
19224;DHT22;9746;47.180;9.776;2022-07-29T15:30:16;22.10;99.90
19224;DHT22;9746;47.180;9.776;2022-07-29T15:32:43;21.70;99.90
19224;DHT22;9746;47.180;9.776;2022-07-29T15:35:11;21.50;99.90
19224;DHT22;9746;47.180;9.776;2022-07-29T15:37:39;21.40;99.90
19224;DHT22;9746;47.180;9.776;2022-07-29T15:40:09;21.20;99.90
19224;DHT22;9746;47.180;9.776;2022-07-29T15:42:37;21.20;99.90
19224;DHT22;9746;47.180;9.776;2022-07-29T15:45:05;21.20;99.90
19224;DHT22;9746;47.180;9.776;2022-07-29T15:47:35;21.30;99.90
19224;DHT22;9746;47.180;9.776;2022-07-29T15:50:03;21.30;99.90
19224;DHT22;9746;47.180;9.776;2022-07-29T15:52:32;21.40;99.90
19224;DHT22;9746;47.180;9.776;2022-07-29T15:54:59;21.40;99.90
19224;DHT22;9746;47.180;9.776;2022-07-29T15:57:28;21.40;99.90
19224;DHT22;9746;47.180;9.776;2022-07-29T15:59:55;21.30;99.90
19224;DHT22;9746;47.180;9.776;2022-07-29T16:02:23;21.30;99.90
19224;DHT22;9746;47.180;9.776;2022-07-29T16:04:50;21.20;99.90
19224;DHT22;9746;47.180;9.776;2022-07-29T16:07:18;21.20;99.90
19224;DHT22;9746;47.180;9.776;2022-07-29T16:09:45;21.20;99.90
19224;DHT22;9746;47.180;9.776;2022-07-29T16:12:12;21.20;99.90
19224;DHT22;9746;47.180;9.776;2022-07-29T16:14:41;21.20;99.90
19224;DHT22;9746;47.180;9.776;2022-07-29T16:17:09;21.20;99.90
19224;DHT22;9746;47.180;9.776;2022-07-29T16:19:36;21.20;99.90
19224;DHT22;9746;47.180;9.776;2022-07-29T16:22:05;21.20;99.90
19224;DHT22;9746;47.180;9.776;2022-07-29T16:24:32;21.10;99.90
19224;DHT22;9746;47.180;9.776;2022-07-29T16:26:59;21.00;99.90
19224;DHT22;9746;47.180;9.776;2022-07-29T16:29:27;21.00;99.90
19224;DHT22;9746;47.180;9.776;2022-07-29T16:31:56;20.90;99.90
19224;DHT22;9746;47.180;9.776;2022-07-29T16:34:23;20.90;99.90
19224;DHT22;9746;47.180;9.776;2022-07-29T16:36:50;20.90;99.90
19224;DHT22;9746;47.180;9.776;2022-07-29T16:39:18;21.00;99.90
19224;DHT22;9746;47.180;9.776;2022-07-29T16:41:45;21.00;99.90
19224;DHT22;9746;47.180;9.776;2022-07-29T16:44:12;20.80;99.90
19224;DHT22;9746;47.180;9.776;2022-07-29T16:46:43;20.90;99.90
19224;DHT22;9746;47.180;9.776;2022-07-29T16:49:12;20.90;99.90
19224;DHT22;9746;47.180;9.776;2022-07-29T16:51:40;21.00;99.90
19224;DHT22;9746;47.180;9.776;2022-07-29T16:54:08;21.00;99.90
19224;DHT22;9746;47.180;9.776;2022-07-29T16:56:36;21.10;99.90
19224;DHT22;9746;47.180;9.776;2022-07-29T16:59:03;21.00;99.90
19224;DHT22;9746;47.180;9.776;2022-07-29T17:01:33;21.10;99.90
19224;DHT22;9746;47.180;9.776;2022-07-29T17:04:00;21.00;99.90
19224;DHT22;9746;47.180;9.776;2022-07-29T17:06:39;21.00;99.90
19224;DHT22;9746;47.180;9.776;2022-07-29T17:09:09;20.90;99.90
19224;DHT22;9746;47.180;9.776;2022-07-29T17:11:37;20.90;99.90
19224;DHT22;9746;47.180;9.776;2022-07-29T17:14:05;20.80;99.90
19224;DHT22;9746;47.180;9.776;2022-07-29T17:16:33;20.80;99.90
19224;DHT22;9746;47.180;9.776;2022-07-29T17:19:01;20.70;99.90
19224;DHT22;9746;47.180;9.776;2022-07-29T17:21:28;20.60;99.90
19224;DHT22;9746;47.180;9.776;2022-07-29T17:23:57;20.40;99.90
19224;DHT22;9746;47.180;9.776;2022-07-29T17:26:25;20.30;99.90
19224;DHT22;9746;47.180;9.776;2022-07-29T17:28:52;20.30;99.90
19224;DHT22;9746;47.180;9.776;2022-07-29T17:31:20;20.20;99.90
19224;DHT22;9746;47.180;9.776;2022-07-29T17:33:48;20.30;99.90
19224;DHT22;9746;47.180;9.776;2022-07-29T17:36:15;20.30;99.90
19224;DHT22;9746;47.180;9.776;2022-07-29T17:38:53;20.40;99.90
19224;DHT22;9746;47.180;9.776;2022-07-29T17:41:22;20.40;99.90
19224;DHT22;9746;47.180;9.776;2022-07-29T17:43:51;20.40;99.90
19224;DHT22;9746;47.180;9.776;2022-07-29T17:46:19;20.40;99.90
19224;DHT22;9746;47.180;9.776;2022-07-29T17:48:48;20.40;99.90
19224;DHT22;9746;47.180;9.776;2022-07-29T17:51:15;20.40;99.90
19224;DHT22;9746;47.180;9.776;2022-07-29T17:53:43;20.30;99.90
19224;DHT22;9746;47.180;9.776;2022-07-29T17:56:10;20.20;99.90
19224;DHT22;9746;47.180;9.776;2022-07-29T17:58:40;20.10;99.90
19224;DHT22;9746;47.180;9.776;2022-07-29T18:01:08;20.10;99.90
19224;DHT22;9746;47.180;9.776;2022-07-29T18:03:36;20.10;99.90
19224;DHT22;9746;47.180;9.776;2022-07-29T18:06:03;20.10;99.90
19224;DHT22;9746;47.180;9.776;2022-07-29T18:08:31;20.00;99.90
19224;DHT22;9746;47.180;9.776;2022-07-29T18:10:58;20.00;99.90
19224;DHT22;9746;47.180;9.776;2022-07-29T18:13:26;19.90;99.90
19224;DHT22;9746;47.180;9.776;2022-07-29T18:15:54;19.90;99.90
19224;DHT22;9746;47.180;9.776;2022-07-29T18:18:22;19.80;99.90
19224;DHT22;9746;47.180;9.776;2022-07-29T18:20:50;19.80;99.90
19224;DHT22;9746;47.180;9.776;2022-07-29T18:23:17;19.80;99.90
19224;DHT22;9746;47.180;9.776;2022-07-29T18:25:45;19.70;99.90
19224;DHT22;9746;47.180;9.776;2022-07-29T18:28:12;19.60;99.90
19224;DHT22;9746;47.180;9.776;2022-07-29T18:30:40;19.60;99.90
19224;DHT22;9746;47.180;9.776;2022-07-29T18:33:09;19.50;99.90
19224;DHT22;9746;47.180;9.776;2022-07-29T18:35:39;19.50;99.90
19224;DHT22;9746;47.180;9.776;2022-07-29T18:38:07;19.50;99.90
19224;DHT22;9746;47.180;9.776;2022-07-29T18:40:34;19.40;99.90
19224;DHT22;9746;47.180;9.776;2022-07-29T18:43:06;19.40;99.90
19224;DHT22;9746;47.180;9.776;2022-07-29T18:45:33;19.30;99.90
19224;DHT22;9746;47.180;9.776;2022-07-29T18:48:01;19.30;99.90
19224;DHT22;9746;47.180;9.776;2022-07-29T18:50:30;19.10;99.90
19224;DHT22;9746;47.180;9.776;2022-07-29T18:52:58;19.00;99.90
19224;DHT22;9746;47.180;9.776;2022-07-29T18:55:26;18.90;99.90
19224;DHT22;9746;47.180;9.776;2022-07-29T18:57:54;18.90;99.90
19224;DHT22;9746;47.180;9.776;2022-07-29T19:00:22;18.80;99.90
19224;DHT22;9746;47.180;9.776;2022-07-29T19:02:49;18.80;99.90
19224;DHT22;9746;47.180;9.776;2022-07-29T19:05:17;18.80;99.90
19224;DHT22;9746;47.180;9.776;2022-07-29T19:07:46;18.80;99.90
19224;DHT22;9746;47.180;9.776;2022-07-29T19:10:13;18.70;99.90
19224;DHT22;9746;47.180;9.776;2022-07-29T19:12:41;18.70;99.90
19224;DHT22;9746;47.180;9.776;2022-07-29T19:15:09;18.70;99.90
19224;DHT22;9746;47.180;9.776;2022-07-29T19:17:38;18.70;99.90
19224;DHT22;9746;47.180;9.776;2022-07-29T19:20:06;18.60;99.90
19224;DHT22;9746;47.180;9.776;2022-07-29T19:22:34;18.60;99.90
19224;DHT22;9746;47.180;9.776;2022-07-29T19:25:04;18.60;99.90
19224;DHT22;9746;47.180;9.776;2022-07-29T19:27:32;18.40;99.90
19224;DHT22;9746;47.180;9.776;2022-07-29T19:29:59;18.40;99.90
19224;DHT22;9746;47.180;9.776;2022-07-29T19:32:28;18.30;99.90
19224;DHT22;9746;47.180;9.776;2022-07-29T19:34:55;18.30;99.90
19224;DHT22;9746;47.180;9.776;2022-07-29T19:37:40;18.30;99.90
19224;DHT22;9746;47.180;9.776;2022-07-29T19:40:10;18.20;99.90
19224;DHT22;9746;47.180;9.776;2022-07-29T19:42:39;18.20;99.90
19224;DHT22;9746;47.180;9.776;2022-07-29T19:45:08;18.10;99.90
19224;DHT22;9746;47.180;9.776;2022-07-29T19:47:35;18.00;99.90
19224;DHT22;9746;47.180;9.776;2022-07-29T19:50:03;18.10;99.90
19224;DHT22;9746;47.180;9.776;2022-07-29T19:52:32;18.10;99.90
19224;DHT22;9746;47.180;9.776;2022-07-29T19:55:01;18.00;99.90
19224;DHT22;9746;47.180;9.776;2022-07-29T19:57:31;18.10;99.90
